Time;durP1;ratioP1;P1;durP2;ratioP2;P2;SDS_P1;SDS_P2;PMS_P1;PMS_P2;Temp;Humidity;BMP_temperature;BMP_pressure;BME280_temperature;BME280_humidity;BME280_pressure;Samples;Min_cycle;Max_cycle;Signal;HPM_P1;HPM_P2
2022/07/07 00:01:57;;;;;;;5.55;5.05;;;;;;;;;;4949903;28;20240;-72
2022/07/07 00:04:23;;;;;;;6.20;5.63;;;;;;;;;;4959033;28;20236;-72
2022/07/07 00:06:48;;;;;;;5.45;5.00;;;;;;;;;;4979810;28;20229;-73
2022/07/07 00:09:18;;;;;;;5.90;5.40;;;;;;;;;;4973570;28;20210;-74
2022/07/07 00:11:49;;;;;;;5.57;5.18;;;;;;;;;;4960649;28;20295;-71
2022/07/07 00:14:17;;;;;;;5.72;5.22;;;;;;;;;;4964584;28;20225;-71
2022/07/07 00:16:45;;;;;;;4.90;4.60;;;;;;;;;;4976818;28;20226;-71
2022/07/07 00:19:17;;;;;;;5.30;4.90;;;;;;;;;;4965950;28;20230;-69
2022/07/07 00:21:45;;;;;;;5.75;5.35;;;;;;;;;;4956034;28;20313;-74
2022/07/07 00:24:11;;;;;;;6.50;6.00;;;;;;;;;;4967732;28;20252;-73
2022/07/07 00:26:38;;;;;;;5.82;5.32;;;;;;;;;;4958805;28;20696;-72
2022/07/07 00:29:04;;;;;;;5.55;5.15;;;;;;;;;;4954984;28;20277;-73
2022/07/07 00:31:30;;;;;;;6.60;6.05;;;;;;;;;;4969184;28;20230;-70
2022/07/07 00:33:57;;;;;;;6.60;6.10;;;;;;;;;;4964318;28;20225;-69
2022/07/07 00:36:25;;;;;;;6.88;6.38;;;;;;;;;;4941438;28;20222;-70
2022/07/07 00:38:50;;;;;;;6.70;6.20;;;;;;;;;;4967611;28;20222;-70
2022/07/07 00:41:16;;;;;;;6.63;6.10;;;;;;;;;;4950174;28;20656;-71
2022/07/07 00:43:44;;;;;;;6.45;5.88;;;;;;;;;;4952698;28;20234;-68
2022/07/07 00:46:11;;;;;;;6.57;6.07;;;;;;;;;;4955044;28;20226;-68
2022/07/07 00:48:37;;;;;;;6.05;5.65;;;;;;;;;;4941496;28;20276;-70
2022/07/07 00:51:03;;;;;;;6.45;6.03;;;;;;;;;;4951760;28;20222;-70
2022/07/07 00:53:29;;;;;;;6.13;5.63;;;;;;;;;;4997422;28;20567;-69
2022/07/07 00:55:54;;;;;;;6.97;6.38;;;;;;;;;;4945300;28;20233;-70
2022/07/07 00:58:20;;;;;;;6.95;6.35;;;;;;;;;;4959584;28;20253;-68
2022/07/07 01:00:48;;;;;;;6.85;6.35;;;;;;;;;;4984262;28;20225;-72
2022/07/07 01:03:16;;;;;;;6.68;6.18;;;;;;;;;;4940117;28;20316;-72
2022/07/07 01:05:44;;;;;;;6.68;6.18;;;;;;;;;;4958400;28;20244;-69
2022/07/07 01:08:10;;;;;;;5.53;5.13;;;;;;;;;;4961092;28;20225;-68
2022/07/07 01:10:38;;;;;;;6.68;6.18;;;;;;;;;;4965357;28;20699;-72
2022/07/07 01:13:08;;;;;;;6.97;6.40;;;;;;;;;;4976416;28;20226;-73
2022/07/07 01:15:38;;;;;;;6.57;5.97;;;;;;;;;;4972692;28;20335;-72
2022/07/07 01:18:06;;;;;;;6.35;5.85;;;;;;;;;;4969285;28;20308;-73
2022/07/07 01:20:31;;;;;;;6.70;6.20;;;;;;;;;;4969360;28;20749;-71
2022/07/07 01:22:57;;;;;;;6.88;6.38;;;;;;;;;;4958173;28;20237;-69
2022/07/07 01:25:23;;;;;;;6.93;6.43;;;;;;;;;;4972054;28;20233;-71
2022/07/07 01:27:51;;;;;;;7.72;7.13;;;;;;;;;;4965113;28;20683;-69
2022/07/07 01:30:19;;;;;;;7.50;6.90;;;;;;;;;;4965145;28;20302;-71
2022/07/07 01:32:49;;;;;;;7.43;6.85;;;;;;;;;;4973979;28;20229;-72
2022/07/07 01:35:15;;;;;;;7.72;7.10;;;;;;;;;;4972327;28;20295;-71
2022/07/07 01:37:45;;;;;;;7.72;7.13;;;;;;;;;;4951967;28;20226;-70
2022/07/07 01:40:13;;;;;;;7.93;7.32;;;;;;;;;;4968963;28;20244;-70
2022/07/07 01:42:43;;;;;;;8.13;7.50;;;;;;;;;;4951329;28;20723;-70
2022/07/07 01:45:09;;;;;;;8.73;8.00;;;;;;;;;;4983739;28;20229;-69
2022/07/07 01:47:35;;;;;;;9.57;8.88;;;;;;;;;;4972994;28;20670;-69
2022/07/07 01:50:00;;;;;;;10.30;9.40;;;;;;;;;;4973747;28;20222;-68
2022/07/07 01:52:26;;;;;;;9.20;8.35;;;;;;;;;;4969390;28;20241;-68
2022/07/07 01:54:51;;;;;;;9.63;8.82;;;;;;;;;;4980291;28;20233;-69
2022/07/07 01:57:17;;;;;;;10.48;9.57;;;;;;;;;;4969411;28;20232;-71
2022/07/07 01:59:47;;;;;;;10.50;9.60;;;;;;;;;;4967715;28;20225;-68
2022/07/07 02:02:15;;;;;;;10.97;10.00;;;;;;;;;;4974261;28;20372;-69
2022/07/07 02:04:40;;;;;;;11.55;10.65;;;;;;;;;;4975199;28;20233;-69
2022/07/07 02:07:06;;;;;;;12.27;11.27;;;;;;;;;;4974666;28;20217;-69
2022/07/07 02:09:34;;;;;;;13.45;12.20;;;;;;;;;;4959435;28;20234;-72
2022/07/07 02:11:59;;;;;;;13.98;12.73;;;;;;;;;;4971253;28;20636;-71
2022/07/07 02:14:25;;;;;;;15.17;13.83;;;;;;;;;;4970535;28;20226;-71
2022/07/07 02:16:54;;;;;;;17.27;15.68;;;;;;;;;;4966756;28;20229;-71
2022/07/07 02:19:24;;;;;;;16.55;15.10;;;;;;;;;;4972825;28;20321;-70
2022/07/07 02:21:53;;;;;;;18.23;16.48;;;;;;;;;;4971795;28;20649;-68
2022/07/07 02:24:19;;;;;;;19.83;17.92;;;;;;;;;;4973047;28;20346;-67
2022/07/07 02:26:44;;;;;;;19.27;17.52;;;;;;;;;;4975507;28;20256;-68
2022/07/07 02:29:13;;;;;;;20.63;18.52;;;;;;;;;;4973561;28;20232;-68
2022/07/07 02:31:41;;;;;;;21.38;19.27;;;;;;;;;;4970272;28;20806;-67
2022/07/07 02:34:09;;;;;;;23.02;20.83;;;;;;;;;;4968832;28;20222;-68
2022/07/07 02:36:34;;;;;;;23.60;21.45;;;;;;;;;;4967158;28;20229;-68
2022/07/07 02:39:00;;;;;;;23.85;21.55;;;;;;;;;;4954105;28;20684;-68
2022/07/07 02:41:25;;;;;;;23.73;21.42;;;;;;;;;;4962409;28;20320;-67
2022/07/07 02:43:51;;;;;;;24.90;22.38;;;;;;;;;;4963585;28;20582;-68
2022/07/07 02:46:20;;;;;;;24.70;22.20;;;;;;;;;;4957810;28;20763;-70
2022/07/07 02:48:45;;;;;;;25.40;22.88;;;;;;;;;;4962117;28;20229;-69
2022/07/07 02:51:11;;;;;;;26.40;23.83;;;;;;;;;;4980234;28;20221;-70
2022/07/07 02:53:38;;;;;;;24.85;22.45;;;;;;;;;;4952477;28;20234;-71
2022/07/07 02:56:04;;;;;;;26.23;23.75;;;;;;;;;;5028584;28;20323;-70
2022/07/07 02:58:34;;;;;;;26.40;23.90;;;;;;;;;;4953818;28;20222;-72
2022/07/07 03:01:02;;;;;;;26.10;23.45;;;;;;;;;;4957183;28;20696;-68
2022/07/07 03:03:27;;;;;;;26.67;24.08;;;;;;;;;;4974018;28;20238;-67
2022/07/07 03:05:55;;;;;;;26.60;23.92;;;;;;;;;;4974489;28;20253;-69
2022/07/07 03:08:21;;;;;;;27.27;24.42;;;;;;;;;;4973644;28;20226;-68
2022/07/07 03:10:46;;;;;;;27.42;24.52;;;;;;;;;;4940258;28;20278;-71
2022/07/07 03:13:18;;;;;;;27.77;24.77;;;;;;;;;;4953996;28;20234;-68
2022/07/07 03:15:46;;;;;;;26.25;23.52;;;;;;;;;;4966584;28;20234;-69
2022/07/07 03:18:12;;;;;;;26.80;23.83;;;;;;;;;;4966681;28;20222;-69
2022/07/07 03:20:37;;;;;;;27.48;24.67;;;;;;;;;;4981862;28;20226;-68
2022/07/07 03:23:08;;;;;;;26.95;24.25;;;;;;;;;;4959197;28;20679;-68
2022/07/07 03:25:36;;;;;;;26.63;23.75;;;;;;;;;;4956088;28;20726;-72
2022/07/07 03:28:01;;;;;;;26.42;23.55;;;;;;;;;;4973554;28;21123;-72
2022/07/07 03:30:29;;;;;;;25.73;23.27;;;;;;;;;;4971442;28;20222;-72
2022/07/07 03:32:55;;;;;;;27.05;23.80;;;;;;;;;;4940789;28;20229;-72
2022/07/07 03:35:20;;;;;;;25.38;22.75;;;;;;;;;;4967436;28;20226;-72
2022/07/07 03:37:48;;;;;;;25.58;22.98;;;;;;;;;;4960619;28;20230;-71
2022/07/07 03:40:16;;;;;;;26.23;23.40;;;;;;;;;;4975130;28;20726;-73
2022/07/07 03:42:42;;;;;;;25.20;22.55;;;;;;;;;;4974028;28;20278;-72
2022/07/07 03:45:10;;;;;;;25.80;23.23;;;;;;;;;;4957791;28;20605;-71
2022/07/07 03:47:38;;;;;;;23.00;20.75;;;;;;;;;;4975169;28;20606;-73
2022/07/07 03:50:04;;;;;;;23.52;21.23;;;;;;;;;;4951159;28;20229;-70
2022/07/07 03:52:29;;;;;;;23.42;21.10;;;;;;;;;;4933761;28;20238;-70
2022/07/07 03:54:55;;;;;;;23.50;21.20;;;;;;;;;;4965961;28;20224;-70
2022/07/07 03:57:22;;;;;;;23.45;21.27;;;;;;;;;;4969095;28;20217;-71
2022/07/07 03:59:50;;;;;;;22.70;20.40;;;;;;;;;;4955511;28;20317;-71
2022/07/07 04:02:15;;;;;;;23.30;20.90;;;;;;;;;;4961411;28;20601;-72
2022/07/07 04:04:41;;;;;;;23.30;21.10;;;;;;;;;;4957694;28;20227;-72
2022/07/07 04:07:06;;;;;;;25.02;21.92;;;;;;;;;;4945590;28;20283;-72
2022/07/07 04:09:34;;;;;;;23.77;21.38;;;;;;;;;;4972659;28;20251;-71
2022/07/07 04:12:02;;;;;;;23.13;20.95;;;;;;;;;;4965755;28;20230;-71
2022/07/07 04:14:30;;;;;;;22.88;20.70;;;;;;;;;;4964534;28;20239;-72
2022/07/07 04:16:56;;;;;;;23.75;20.88;;;;;;;;;;4976509;28;20243;-72
2022/07/07 04:19:24;;;;;;;24.20;21.90;;;;;;;;;;4971571;28;20225;-73
2022/07/07 04:21:59;;;;;;;23.67;21.48;;;;;;;;;;4974590;28;20234;-72
2022/07/07 04:24:27;;;;;;;24.15;21.67;;;;;;;;;;4992616;28;20665;-73
2022/07/07 04:26:53;;;;;;;23.98;21.58;;;;;;;;;;4971050;28;20581;-72
2022/07/07 04:29:19;;;;;;;24.85;22.35;;;;;;;;;;4967760;28;20347;-73
2022/07/07 04:31:44;;;;;;;25.52;22.92;;;;;;;;;;4947520;28;20222;-74
2022/07/07 04:34:12;;;;;;;22.63;20.42;;;;;;;;;;4953491;28;20317;-71
2022/07/07 04:36:40;;;;;;;22.73;20.60;;;;;;;;;;4952034;28;20229;-72
2022/07/07 04:39:08;;;;;;;22.35;20.15;;;;;;;;;;4953899;28;20265;-72
2022/07/07 04:41:34;;;;;;;20.60;18.60;;;;;;;;;;4956070;28;20316;-72
2022/07/07 04:43:59;;;;;;;20.25;18.35;;;;;;;;;;4978494;28;20303;-72
2022/07/07 04:46:25;;;;;;;20.98;19.05;;;;;;;;;;4955454;28;20229;-72
2022/07/07 04:48:53;;;;;;;20.52;18.70;;;;;;;;;;4972260;28;20586;-71
2022/07/07 04:51:18;;;;;;;21.15;19.10;;;;;;;;;;4968057;28;20218;-72
2022/07/07 04:53:46;;;;;;;21.75;19.75;;;;;;;;;;4966449;28;20237;-71
2022/07/07 04:56:12;;;;;;;20.85;18.75;;;;;;;;;;4952781;28;20233;-73
2022/07/07 04:58:38;;;;;;;21.25;19.10;;;;;;;;;;4974563;28;20271;-72
2022/07/07 05:01:06;;;;;;;22.70;20.30;;;;;;;;;;4939863;28;20245;-71
2022/07/07 05:03:34;;;;;;;23.75;21.23;;;;;;;;;;4958665;28;20236;-72
2022/07/07 05:06:02;;;;;;;22.73;20.60;;;;;;;;;;4938107;28;20899;-72
2022/07/07 05:08:30;;;;;;;21.92;19.83;;;;;;;;;;4977257;28;20245;-72
2022/07/07 05:10:59;;;;;;;22.85;20.63;;;;;;;;;;4969553;28;20222;-72
2022/07/07 05:13:24;;;;;;;22.52;20.38;;;;;;;;;;4966240;28;20291;-71
2022/07/07 05:15:50;;;;;;;21.77;19.88;;;;;;;;;;4969756;28;20233;-72
2022/07/07 05:18:17;;;;;;;22.35;20.05;;;;;;;;;;4972599;28;20255;-73
2022/07/07 05:20:47;;;;;;;21.40;19.35;;;;;;;;;;4944542;28;21080;-72
2022/07/07 05:23:13;;;;;;;20.27;18.47;;;;;;;;;;4955421;28;20710;-73
2022/07/07 05:25:41;;;;;;;21.23;19.23;;;;;;;;;;4984734;28;20229;-73
2022/07/07 05:28:08;;;;;;;19.95;18.05;;;;;;;;;;4967331;28;20300;-73
2022/07/07 05:30:36;;;;;;;20.00;18.15;;;;;;;;;;4951446;28;20978;-74
2022/07/07 05:33:07;;;;;;;20.75;18.85;;;;;;;;;;4966659;28;20765;-73
2022/07/07 05:35:34;;;;;;;19.95;18.10;;;;;;;;;;4972389;28;20540;-73
2022/07/07 05:38:01;;;;;;;20.08;18.27;;;;;;;;;;4971676;28;20226;-73
2022/07/07 05:40:31;;;;;;;20.92;18.92;;;;;;;;;;4957687;28;20233;-73
2022/07/07 05:43:00;;;;;;;20.95;18.88;;;;;;;;;;4976268;28;20598;-71
2022/07/07 05:45:28;;;;;;;19.55;17.77;;;;;;;;;;4938802;28;20238;-72
2022/07/07 05:47:53;;;;;;;20.88;18.90;;;;;;;;;;4975071;28;20240;-73
2022/07/07 05:50:22;;;;;;;20.35;18.58;;;;;;;;;;4969701;28;20238;-71
2022/07/07 05:52:50;;;;;;;19.90;18.00;;;;;;;;;;4950652;28;20231;-72
2022/07/07 05:55:17;;;;;;;19.27;17.38;;;;;;;;;;4959633;28;20344;-72
2022/07/07 05:57:43;;;;;;;18.52;16.70;;;;;;;;;;4972933;28;20234;-74
2022/07/07 06:00:10;;;;;;;17.73;15.90;;;;;;;;;;4973813;28;20283;-73
2022/07/07 06:02:38;;;;;;;16.98;15.48;;;;;;;;;;4965329;28;20948;-73
2022/07/07 06:05:06;;;;;;;16.60;15.02;;;;;;;;;;4969876;28;20225;-72
2022/07/07 06:07:32;;;;;;;16.40;14.90;;;;;;;;;;4958026;28;20222;-72
2022/07/07 06:09:57;;;;;;;16.48;15.05;;;;;;;;;;4953530;28;20718;-71
2022/07/07 06:12:23;;;;;;;16.52;14.93;;;;;;;;;;5014922;28;20229;-72
2022/07/07 06:14:48;;;;;;;16.58;15.07;;;;;;;;;;4968592;28;20226;-72
2022/07/07 06:17:14;;;;;;;15.15;13.73;;;;;;;;;;4976464;28;20699;-72
2022/07/07 06:19:40;;;;;;;15.65;14.20;;;;;;;;;;4953313;28;20240;-73
2022/07/07 06:22:07;;;;;;;14.60;13.30;;;;;;;;;;4969965;28;20283;-72
2022/07/07 06:24:33;;;;;;;14.27;13.02;;;;;;;;;;4960973;28;20226;-71
2022/07/07 06:27:01;;;;;;;13.93;12.52;;;;;;;;;;4939528;28;20240;-72
2022/07/07 06:29:27;;;;;;;13.07;11.88;;;;;;;;;;4966909;28;20608;-72
2022/07/07 06:31:55;;;;;;;12.95;11.75;;;;;;;;;;4968921;28;20237;-71
2022/07/07 06:34:21;;;;;;;12.10;11.10;;;;;;;;;;4956996;28;20230;-72
2022/07/07 06:36:46;;;;;;;11.48;10.50;;;;;;;;;;4958303;28;20225;-71
2022/07/07 06:39:12;;;;;;;11.60;10.70;;;;;;;;;;4973905;28;20677;-72
2022/07/07 06:41:38;;;;;;;10.48;9.57;;;;;;;;;;4955639;28;20230;-73
2022/07/07 06:44:06;;;;;;;10.25;9.35;;;;;;;;;;4955018;28;20230;-70
2022/07/07 06:46:34;;;;;;;10.25;9.35;;;;;;;;;;4955804;28;20237;-71
2022/07/07 06:49:02;;;;;;;10.20;9.40;;;;;;;;;;4953787;28;20325;-73
2022/07/07 06:51:27;;;;;;;10.10;9.20;;;;;;;;;;4958975;28;20227;-71
2022/07/07 06:53:53;;;;;;;8.98;8.27;;;;;;;;;;4942409;28;20247;-72
2022/07/07 06:56:19;;;;;;;8.90;8.10;;;;;;;;;;4965589;28;20308;-72
2022/07/07 06:58:47;;;;;;;8.90;8.20;;;;;;;;;;4973853;28;20226;-72
2022/07/07 07:01:12;;;;;;;7.78;7.18;;;;;;;;;;4975796;28;20238;-72
2022/07/07 07:03:38;;;;;;;7.32;6.72;;;;;;;;;;4972546;28;20679;-72
2022/07/07 07:06:04;;;;;;;7.30;6.70;;;;;;;;;;4967615;28;20225;-72
2022/07/07 07:08:29;;;;;;;6.65;6.15;;;;;;;;;;4951673;28;20711;-72
2022/07/07 07:10:55;;;;;;;6.65;6.15;;;;;;;;;;4971146;28;20214;-72
2022/07/07 07:13:23;;;;;;;5.80;5.50;;;;;;;;;;4982810;28;20233;-71
2022/07/07 07:15:51;;;;;;;6.10;5.60;;;;;;;;;;4955040;28;20234;-73
2022/07/07 07:18:17;;;;;;;5.72;5.20;;;;;;;;;;4949068;28;20231;-71
2022/07/07 07:20:42;;;;;;;6.18;5.68;;;;;;;;;;4978017;28;20230;-73
2022/07/07 07:23:08;;;;;;;5.78;5.30;;;;;;;;;;4971723;28;20224;-71
2022/07/07 07:25:36;;;;;;;5.70;5.30;;;;;;;;;;4936728;28;20764;-71
2022/07/07 07:28:02;;;;;;;4.85;4.55;;;;;;;;;;4966871;28;20295;-73
2022/07/07 07:30:31;;;;;;;4.03;3.83;;;;;;;;;;4967697;28;20690;-71
2022/07/07 07:32:58;;;;;;;3.58;3.33;;;;;;;;;;4954625;28;20238;-72
2022/07/07 07:35:24;;;;;;;3.28;3.00;;;;;;;;;;4959181;28;20309;-72
2022/07/07 07:37:50;;;;;;;2.80;2.60;;;;;;;;;;4972126;28;20780;-73
2022/07/07 07:40:16;;;;;;;2.85;2.65;;;;;;;;;;4972360;28;20237;-72
2022/07/07 07:42:42;;;;;;;2.95;2.42;;;;;;;;;;4952597;28;21060;-72
2022/07/07 07:45:11;;;;;;;2.65;1.90;;;;;;;;;;4970063;28;20225;-72
2022/07/07 07:47:41;;;;;;;3.97;2.08;;;;;;;;;;4940430;28;20226;-72
2022/07/07 07:50:12;;;;;;;1.70;1.60;;;;;;;;;;4950899;28;20719;-76
2022/07/07 07:52:40;;;;;;;1.63;1.50;;;;;;;;;;4934409;28;20222;-71
2022/07/07 07:55:07;;;;;;;1.70;1.60;;;;;;;;;;4955638;28;20684;-72
2022/07/07 07:57:35;;;;;;;2.03;1.52;;;;;;;;;;4975468;28;20599;-72
2022/07/07 08:00:01;;;;;;;1.63;1.52;;;;;;;;;;4955330;28;20236;-72
2022/07/07 08:02:27;;;;;;;1.80;1.70;;;;;;;;;;4971351;28;20615;-72
2022/07/07 08:04:52;;;;;;;1.73;1.60;;;;;;;;;;4950880;28;20226;-72
2022/07/07 08:07:18;;;;;;;1.90;1.80;;;;;;;;;;4955127;28;20231;-73
2022/07/07 08:09:44;;;;;;;1.85;1.70;;;;;;;;;;4985568;28;20656;-72
2022/07/07 08:12:10;;;;;;;2.55;1.88;;;;;;;;;;4943097;28;20229;-71
2022/07/07 08:14:35;;;;;;;2.20;2.00;;;;;;;;;;4962606;28;20238;-72
2022/07/07 08:17:01;;;;;;;2.20;2.00;;;;;;;;;;4972366;28;20236;-72
2022/07/07 08:19:27;;;;;;;3.22;2.17;;;;;;;;;;4953388;28;20237;-71
2022/07/07 08:21:53;;;;;;;2.42;2.22;;;;;;;;;;4969358;28;20315;-73
2022/07/07 08:24:18;;;;;;;2.75;2.47;;;;;;;;;;4949339;28;20247;-71
2022/07/07 08:26:44;;;;;;;4.35;2.30;;;;;;;;;;4966049;28;20230;-72
2022/07/07 08:29:10;;;;;;;3.15;2.10;;;;;;;;;;4967286;28;20226;-72
2022/07/07 08:31:35;;;;;;;2.35;2.00;;;;;;;;;;4974861;28;20233;-72
2022/07/07 08:34:04;;;;;;;4.00;2.20;;;;;;;;;;4972558;28;20323;-72
2022/07/07 08:36:32;;;;;;;2.78;1.90;;;;;;;;;;4952175;28;20663;-71
2022/07/07 08:38:58;;;;;;;3.08;2.13;;;;;;;;;;4966780;28;20257;-72
2022/07/07 08:41:26;;;;;;;1.88;1.70;;;;;;;;;;4975835;28;20267;-72
2022/07/07 08:43:57;;;;;;;6.70;1.75;;;;;;;;;;4949371;28;20265;-72
2022/07/07 08:46:25;;;;;;;2.78;1.60;;;;;;;;;;4952980;28;20323;-71
2022/07/07 08:48:53;;;;;;;2.00;1.80;;;;;;;;;;4968806;28;20250;-72
2022/07/07 08:51:23;;;;;;;3.28;1.88;;;;;;;;;;4951768;28;20217;-72
2022/07/07 08:53:59;;;;;;;3.25;1.85;;;;;;;;;;4958806;28;20268;-73
2022/07/07 08:56:24;;;;;;;3.28;1.90;;;;;;;;;;4973326;28;20631;-73
2022/07/07 08:58:50;;;;;;;4.88;1.92;;;;;;;;;;4969560;28;20229;-72
2022/07/07 09:01:16;;;;;;;5.68;2.47;;;;;;;;;;5018550;28;20268;-71
2022/07/07 09:03:41;;;;;;;4.60;2.58;;;;;;;;;;4968985;28;20708;-73
2022/07/07 09:06:07;;;;;;;4.97;2.63;;;;;;;;;;4959254;28;20766;-71
2022/07/07 09:08:33;;;;;;;2.95;2.75;;;;;;;;;;5006403;28;20261;-72
2022/07/07 09:11:07;;;;;;;3.60;2.58;;;;;;;;;;4973468;28;20229;-72
2022/07/07 09:13:33;;;;;;;2.83;2.47;;;;;;;;;;4936822;28;21010;-72
2022/07/07 09:16:02;;;;;;;4.07;2.78;;;;;;;;;;4961996;28;20207;-72
2022/07/07 09:18:33;;;;;;;4.97;2.80;;;;;;;;;;4951888;28;20911;-71
2022/07/07 09:21:00;;;;;;;4.15;3.58;;;;;;;;;;4979959;28;20324;-72
2022/07/07 09:23:27;;;;;;;7.05;5.25;;;;;;;;;;4956057;28;20222;-71
2022/07/07 09:25:53;;;;;;;6.75;4.95;;;;;;;;;;4970685;28;20316;-71
2022/07/07 09:28:18;;;;;;;5.45;4.95;;;;;;;;;;4966371;28;21006;-73
2022/07/07 09:30:45;;;;;;;6.53;4.40;;;;;;;;;;4956664;28;20218;-71
2022/07/07 09:33:19;;;;;;;6.45;4.63;;;;;;;;;;4974530;28;20230;-72
2022/07/07 09:38:31;;;;;;;5.65;3.35;;;;;;;;;;4960534;28;20226;-73
2022/07/07 09:41:08;;;;;;;6.70;3.33;;;;;;;;;;4938614;28;20222;-71
2022/07/07 09:43:45;;;;;;;5.25;3.00;;;;;;;;;;4960467;28;20238;-73
2022/07/07 09:46:23;;;;;;;6.32;2.60;;;;;;;;;;4970791;28;20696;-72
2022/07/07 09:48:57;;;;;;;4.90;2.50;;;;;;;;;;4948654;28;20241;-71
2022/07/07 09:51:23;;;;;;;4.47;2.50;;;;;;;;;;4945414;28;20322;-72
2022/07/07 09:54:07;;;;;;;4.53;1.95;;;;;;;;;;4975544;28;20230;-73
2022/07/07 09:56:44;;;;;;;5.20;2.00;;;;;;;;;;4944985;28;20230;-72
2022/07/07 09:59:18;;;;;;;5.93;2.03;;;;;;;;;;4952193;28;20221;-72
2022/07/07 10:01:44;;;;;;;4.35;1.88;;;;;;;;;;4935613;28;20883;-72
2022/07/07 10:04:13;;;;;;;3.05;1.88;;;;;;;;;;4950781;28;20638;-74
2022/07/07 10:06:40;;;;;;;2.22;1.60;;;;;;;;;;4958162;28;20287;-71
2022/07/07 10:09:13;;;;;;;4.65;1.85;;;;;;;;;;4955250;28;20225;-72
2022/07/07 10:11:40;;;;;;;5.10;2.10;;;;;;;;;;4941684;28;20228;-72
2022/07/07 10:14:22;;;;;;;3.92;1.70;;;;;;;;;;4959250;28;20261;-72
2022/07/07 10:16:53;;;;;;;2.65;1.73;;;;;;;;;;4929673;28;20658;-72
2022/07/07 10:19:23;;;;;;;2.67;1.60;;;;;;;;;;4951968;28;20218;-76
2022/07/07 10:21:52;;;;;;;5.38;1.58;;;;;;;;;;4958935;28;20230;-73
2022/07/07 10:24:19;;;;;;;2.90;1.73;;;;;;;;;;4960879;28;20234;-73
2022/07/07 10:26:49;;;;;;;3.22;1.67;;;;;;;;;;4953829;28;20218;-73
2022/07/07 10:29:17;;;;;;;5.28;1.63;;;;;;;;;;4970125;28;20657;-75
2022/07/07 10:31:50;;;;;;;3.72;1.85;;;;;;;;;;4949939;28;20662;-73
2022/07/07 10:34:16;;;;;;;3.80;1.85;;;;;;;;;;4977956;28;20317;-72
2022/07/07 10:36:51;;;;;;;4.72;1.73;;;;;;;;;;4955428;28;20228;-75
2022/07/07 10:39:21;;;;;;;2.92;1.63;;;;;;;;;;4974411;28;20236;-74
2022/07/07 10:42:17;;;;;;;5.38;2.00;;;;;;;;;;4982468;28;20222;-75
2022/07/07 10:44:44;;;;;;;3.03;1.67;;;;;;;;;;4961734;28;20266;-76
2022/07/07 10:47:21;;;;;;;2.75;1.50;;;;;;;;;;4959502;28;20583;-75
2022/07/07 10:49:54;;;;;;;4.57;1.90;;;;;;;;;;4957760;28;20256;-74
2022/07/07 10:52:25;;;;;;;4.00;1.75;;;;;;;;;;4985040;28;20611;-73
2022/07/07 10:54:55;;;;;;;6.72;2.00;;;;;;;;;;4973446;28;20253;-75
2022/07/07 10:57:24;;;;;;;2.75;1.60;;;;;;;;;;4970148;28;20233;-73
2022/07/07 11:00:06;;;;;;;4.28;1.70;;;;;;;;;;4966465;28;20711;-72
2022/07/07 11:02:53;;;;;;;3.58;1.70;;;;;;;;;;4968851;28;20237;-73
2022/07/07 11:05:19;;;;;;;2.78;1.70;;;;;;;;;;4949641;28;20304;-75
2022/07/07 11:07:58;;;;;;;5.47;1.60;;;;;;;;;;4973318;28;20248;-72
2022/07/07 11:10:50;;;;;;;4.38;1.52;;;;;;;;;;4956933;28;21054;-74
2022/07/07 11:13:20;;;;;;;6.60;1.75;;;;;;;;;;4971711;28;20604;-74
2022/07/07 11:15:49;;;;;;;4.40;1.52;;;;;;;;;;4969266;28;20235;-72
2022/07/07 11:18:15;;;;;;;3.88;1.45;;;;;;;;;;4951978;28;20288;-73
2022/07/07 11:20:51;;;;;;;2.70;1.52;;;;;;;;;;4937118;28;20230;-73
2022/07/07 11:23:17;;;;;;;5.47;1.60;;;;;;;;;;4965622;28;20213;-72
2022/07/07 11:25:42;;;;;;;7.15;1.80;;;;;;;;;;4970592;28;20328;-71
2022/07/07 11:28:10;;;;;;;5.68;1.90;;;;;;;;;;4938425;28;20222;-72
2022/07/07 11:30:36;;;;;;;6.03;1.60;;;;;;;;;;4975708;28;20640;-72
2022/07/07 11:33:02;;;;;;;3.40;1.38;;;;;;;;;;4950220;28;20218;-72
2022/07/07 11:35:40;;;;;;;4.88;1.88;;;;;;;;;;4970530;28;20294;-73
2022/07/07 11:38:08;;;;;;;4.55;1.85;;;;;;;;;;4965573;28;20328;-72
2022/07/07 11:40:36;;;;;;;3.92;1.73;;;;;;;;;;4961251;28;20222;-72
2022/07/07 11:43:05;;;;;;;5.28;1.80;;;;;;;;;;4952020;28;20221;-72
2022/07/07 11:45:31;;;;;;;3.63;1.50;;;;;;;;;;4977299;28;20261;-72
2022/07/07 11:48:01;;;;;;;4.95;1.85;;;;;;;;;;4959032;28;20246;-72
2022/07/07 11:50:31;;;;;;;3.28;1.60;;;;;;;;;;4971122;28;20240;-72
2022/07/07 11:52:58;;;;;;;4.07;1.80;;;;;;;;;;4959720;28;20230;-69
2022/07/07 11:55:26;;;;;;;6.28;1.85;;;;;;;;;;4964060;28;20221;-73
2022/07/07 11:57:59;;;;;;;4.60;1.95;;;;;;;;;;4968758;28;20219;-72
2022/07/07 12:00:29;;;;;;;6.25;1.90;;;;;;;;;;4951244;28;20316;-72
2022/07/07 12:03:05;;;;;;;8.18;2.10;;;;;;;;;;4951746;28;20287;-71
2022/07/07 12:05:46;;;;;;;6.38;2.00;;;;;;;;;;4942837;28;20226;-70
2022/07/07 12:08:14;;;;;;;6.35;1.90;;;;;;;;;;4948861;28;20226;-72
2022/07/07 12:10:40;;;;;;;5.35;1.70;;;;;;;;;;4952032;28;20278;-72
2022/07/07 12:13:12;;;;;;;6.88;1.98;;;;;;;;;;4974652;28;20749;-73
2022/07/07 12:15:45;;;;;;;3.03;1.48;;;;;;;;;;4971903;28;20226;-71
2022/07/07 12:18:11;;;;;;;4.30;1.58;;;;;;;;;;4965987;28;20367;-73
2022/07/07 12:20:37;;;;;;;2.40;1.33;;;;;;;;;;4969522;28;20229;-71
2022/07/07 12:23:07;;;;;;;2.30;1.42;;;;;;;;;;4949839;28;20298;-68
2022/07/07 12:25:36;;;;;;;3.40;1.65;;;;;;;;;;4960920;28;20366;-71
2022/07/07 12:28:04;;;;;;;5.28;1.65;;;;;;;;;;4955118;28;20439;-73
2022/07/07 12:30:31;;;;;;;4.28;1.48;;;;;;;;;;4952812;28;20229;-73
2022/07/07 12:32:57;;;;;;;2.45;1.52;;;;;;;;;;4964215;28;20237;-73
2022/07/07 12:35:32;;;;;;;5.40;1.40;;;;;;;;;;4965478;28;20264;-73
2022/07/07 12:38:02;;;;;;;2.58;1.45;;;;;;;;;;4967587;28;20236;-71
2022/07/07 12:40:40;;;;;;;4.07;1.90;;;;;;;;;;4981864;28;20222;-72
2022/07/07 12:43:07;;;;;;;3.80;1.40;;;;;;;;;;4971763;28;20226;-73
2022/07/07 12:45:33;;;;;;;2.33;1.00;;;;;;;;;;5041382;28;20232;-72
2022/07/07 12:48:01;;;;;;;1.63;0.90;;;;;;;;;;4974941;28;20261;-73
2022/07/07 12:50:29;;;;;;;2.10;1.10;;;;;;;;;;4973884;28;20714;-70
2022/07/07 12:52:59;;;;;;;6.78;1.13;;;;;;;;;;4946347;28;20232;-73
2022/07/07 12:55:34;;;;;;;2.75;1.00;;;;;;;;;;4955665;28;20873;-73
2022/07/07 12:58:22;;;;;;;1.67;1.10;;;;;;;;;;4952652;28;20248;-74
2022/07/07 13:00:59;;;;;;;1.25;0.70;;;;;;;;;;4966946;28;20729;-72
2022/07/07 13:03:25;;;;;;;1.10;0.68;;;;;;;;;;4954789;28;20314;-73
2022/07/07 13:05:51;;;;;;;1.15;0.70;;;;;;;;;;4959284;28;20225;-73
2022/07/07 13:08:16;;;;;;;0.70;0.70;;;;;;;;;;4960720;28;20221;-71
2022/07/07 13:10:42;;;;;;;1.08;0.60;;;;;;;;;;4959987;28;20229;-71
2022/07/07 13:13:08;;;;;;;2.38;0.80;;;;;;;;;;4970820;28;20237;-68
2022/07/07 13:15:33;;;;;;;1.15;0.70;;;;;;;;;;4946162;28;20222;-71
2022/07/07 13:17:59;;;;;;;4.05;1.10;;;;;;;;;;4969463;28;20230;-75
2022/07/07 13:20:27;;;;;;;3.85;1.92;;;;;;;;;;4971801;28;21226;-72
2022/07/07 13:22:56;;;;;;;5.32;2.20;;;;;;;;;;4924222;28;20234;-73
2022/07/07 13:25:24;;;;;;;5.57;2.58;;;;;;;;;;4973239;28;20698;-74
2022/07/07 13:27:50;;;;;;;7.78;3.10;;;;;;;;;;4949979;28;20787;-73
2022/07/07 13:30:19;;;;;;;6.25;3.00;;;;;;;;;;4956482;28;20290;-71
2022/07/07 13:32:44;;;;;;;8.68;3.72;;;;;;;;;;4969818;28;20253;-75
2022/07/07 13:35:10;;;;;;;7.40;3.63;;;;;;;;;;4969497;28;20241;-71
2022/07/07 13:37:36;;;;;;;11.55;3.67;;;;;;;;;;4920263;28;20241;-73
2022/07/07 13:40:03;;;;;;;11.98;4.03;;;;;;;;;;4935946;28;20735;-73
2022/07/07 13:42:29;;;;;;;8.23;3.88;;;;;;;;;;4956547;28;20283;-72
2022/07/07 13:44:54;;;;;;;9.35;3.85;;;;;;;;;;4960963;28;20939;-73
2022/07/07 13:47:20;;;;;;;11.15;3.60;;;;;;;;;;4946157;28;20248;-73
2022/07/07 13:49:46;;;;;;;11.93;4.15;;;;;;;;;;4990427;28;20214;-72
2022/07/07 13:52:12;;;;;;;12.93;3.83;;;;;;;;;;4955493;28;20278;-73
2022/07/07 13:54:37;;;;;;;10.05;3.70;;;;;;;;;;4973652;28;20230;-73
2022/07/07 13:57:09;;;;;;;7.85;3.25;;;;;;;;;;4986625;28;20312;-75
2022/07/07 13:59:34;;;;;;;11.55;3.30;;;;;;;;;;4973450;28;20242;-72
2022/07/07 14:02:01;;;;;;;11.63;3.50;;;;;;;;;;4952522;28;20359;-72
2022/07/07 14:04:26;;;;;;;11.93;3.33;;;;;;;;;;4979445;28;20226;-72
2022/07/07 14:07:02;;;;;;;14.50;3.72;;;;;;;;;;4961900;28;20236;-75
2022/07/07 14:09:28;;;;;;;11.43;3.92;;;;;;;;;;4955235;28;20225;-70
2022/07/07 14:11:56;;;;;;;15.00;3.80;;;;;;;;;;4969919;28;20230;-73
2022/07/07 14:14:22;;;;;;;10.60;3.58;;;;;;;;;;4968862;28;20242;-72
2022/07/07 14:16:48;;;;;;;10.20;3.47;;;;;;;;;;4972482;28;20287;-72
2022/07/07 14:19:13;;;;;;;13.50;3.50;;;;;;;;;;4954243;28;20329;-73
2022/07/07 14:21:41;;;;;;;11.63;3.35;;;;;;;;;;4980976;28;20411;-74
2022/07/07 14:24:10;;;;;;;10.02;3.50;;;;;;;;;;4978491;28;20309;-74
2022/07/07 14:26:39;;;;;;;10.15;3.63;;;;;;;;;;4952444;28;20225;-76
2022/07/07 14:29:04;;;;;;;10.73;3.25;;;;;;;;;;4977462;28;20225;-76
2022/07/07 14:31:34;;;;;;;14.55;3.42;;;;;;;;;;4959753;28;20222;-74
2022/07/07 14:34:03;;;;;;;8.55;3.05;;;;;;;;;;4934554;28;20294;-74
2022/07/07 14:36:31;;;;;;;7.50;2.92;;;;;;;;;;4953530;28;20321;-73
2022/07/07 14:38:57;;;;;;;10.13;3.45;;;;;;;;;;4942232;28;20316;-74
2022/07/07 14:41:22;;;;;;;9.27;2.97;;;;;;;;;;4973017;28;20312;-74